sensor_id;sensor_type;location;lat;lon;timestamp;pressure;altitude;pressure_sealevel;temperature;humidity
1480;BME280;732;51.698;4.886;2024-03-02T00:02:15;100020.53;;;4.95;89.17
1480;BME280;732;51.698;4.886;2024-03-02T00:04:44;100034.31;;;4.99;89.51
1480;BME280;732;51.698;4.886;2024-03-02T00:07:14;100043.25;;;4.97;90.21
1480;BME280;732;51.698;4.886;2024-03-02T00:09:43;100049.69;;;4.95;90.24
1480;BME280;732;51.698;4.886;2024-03-02T00:12:15;100044.56;;;4.93;89.85
1480;BME280;732;51.698;4.886;2024-03-02T00:14:46;100045.38;;;4.76;90.22
1480;BME280;732;51.698;4.886;2024-03-02T00:17:24;99975.50;;;4.51;90.45
1480;BME280;732;51.698;4.886;2024-03-02T00:19:53;100065.97;;;5.00;90.33
1480;BME280;732;51.698;4.886;2024-03-02T00:22:22;100053.78;;;5.07;89.97
1480;BME280;732;51.698;4.886;2024-03-02T00:24:51;100067.47;;;5.03;89.97
1480;BME280;732;51.698;4.886;2024-03-02T00:27:20;100047.06;;;4.77;90.83
1480;BME280;732;51.698;4.886;2024-03-02T00:29:53;100052.09;;;5.06;89.95
1480;BME280;732;51.698;4.886;2024-03-02T00:32:23;100054.53;;;5.00;90.24
1480;BME280;732;51.698;4.886;2024-03-02T00:34:55;100045.16;;;4.87;90.73
1480;BME280;732;51.698;4.886;2024-03-02T00:37:24;100065.59;;;4.95;90.26
1480;BME280;732;51.698;4.886;2024-03-02T00:39:53;100056.72;;;4.86;90.74
1480;BME280;732;51.698;4.886;2024-03-02T00:42:21;100017.56;;;4.72;90.64
1480;BME280;732;51.698;4.886;2024-03-02T00:44:51;100043.50;;;5.04;89.76
1480;BME280;732;51.698;4.886;2024-03-02T00:47:21;100021.41;;;4.95;89.66
1480;BME280;732;51.698;4.886;2024-03-02T00:49:50;100017.19;;;5.11;88.98
1480;BME280;732;51.698;4.886;2024-03-02T00:52:18;100046.25;;;5.21;89.26
1480;BME280;732;51.698;4.886;2024-03-02T00:54:47;100057.13;;;5.36;88.81
1480;BME280;732;51.698;4.886;2024-03-02T00:57:16;100050.00;;;5.36;88.43
1480;BME280;732;51.698;4.886;2024-03-02T00:59:44;100055.81;;;5.13;89.00
1480;BME280;732;51.698;4.886;2024-03-02T01:02:13;100060.13;;;5.15;89.30
1480;BME280;732;51.698;4.886;2024-03-02T01:04:44;100059.88;;;5.26;89.04
1480;BME280;732;51.698;4.886;2024-03-02T01:07:12;100049.00;;;5.11;88.90
1480;BME280;732;51.698;4.886;2024-03-02T01:09:41;100068.19;;;5.31;88.39
1480;BME280;732;51.698;4.886;2024-03-02T01:12:10;100074.03;;;5.35;88.12
1480;BME280;732;51.698;4.886;2024-03-02T01:14:39;100080.31;;;5.34;88.15
1480;BME280;732;51.698;4.886;2024-03-02T01:17:07;100075.78;;;5.26;87.80
1480;BME280;732;51.698;4.886;2024-03-02T01:19:36;100086.09;;;5.29;87.97
1480;BME280;732;51.698;4.886;2024-03-02T01:22:07;100034.47;;;4.97;88.01
1480;BME280;732;51.698;4.886;2024-03-02T01:24:36;100089.56;;;5.29;87.97
1480;BME280;732;51.698;4.886;2024-03-02T01:27:05;100102.69;;;5.13;88.09
1480;BME280;732;51.698;4.886;2024-03-02T01:29:33;100087.84;;;5.02;88.80
1480;BME280;732;51.698;4.886;2024-03-02T01:32:03;100098.47;;;5.20;88.73
1480;BME280;732;51.698;4.886;2024-03-02T01:34:32;100051.34;;;5.14;88.27
1480;BME280;732;51.698;4.886;2024-03-02T01:37:00;100050.66;;;5.12;88.17
1480;BME280;732;51.698;4.886;2024-03-02T01:39:30;100024.56;;;4.99;87.99
1480;BME280;732;51.698;4.886;2024-03-02T01:41:59;100088.75;;;5.29;88.42
1480;BME280;732;51.698;4.886;2024-03-02T01:44:29;100083.44;;;5.29;87.85
1480;BME280;732;51.698;4.886;2024-03-02T01:46:57;100094.50;;;5.24;88.23
1480;BME280;732;51.698;4.886;2024-03-02T01:49:26;100102.22;;;5.18;88.11
1480;BME280;732;51.698;4.886;2024-03-02T01:51:54;100076.41;;;5.20;87.81
1480;BME280;732;51.698;4.886;2024-03-02T01:54:25;100076.63;;;5.26;88.19
1480;BME280;732;51.698;4.886;2024-03-02T01:56:56;100090.34;;;5.22;88.15
1480;BME280;732;51.698;4.886;2024-03-02T01:59:25;100089.56;;;5.11;88.55
1480;BME280;732;51.698;4.886;2024-03-02T02:01:53;100083.91;;;5.24;88.30
1480;BME280;732;51.698;4.886;2024-03-02T02:04:22;100079.66;;;5.13;88.22
1480;BME280;732;51.698;4.886;2024-03-02T02:06:54;100083.78;;;5.08;88.51
1480;BME280;732;51.698;4.886;2024-03-02T02:09:23;100091.25;;;5.12;88.44
1480;BME280;732;51.698;4.886;2024-03-02T02:11:54;100084.28;;;4.93;88.06
1480;BME280;732;51.698;4.886;2024-03-02T02:14:23;100062.25;;;4.75;88.23
1480;BME280;732;51.698;4.886;2024-03-02T02:16:52;100082.09;;;4.89;88.08
1480;BME280;732;51.698;4.886;2024-03-02T02:19:21;100091.63;;;5.00;87.95
1480;BME280;732;51.698;4.886;2024-03-02T02:21:51;100083.59;;;4.91;88.25
1480;BME280;732;51.698;4.886;2024-03-02T02:24:21;100087.53;;;4.87;87.84
1480;BME280;732;51.698;4.886;2024-03-02T02:26:51;100101.63;;;4.88;88.24
1480;BME280;732;51.698;4.886;2024-03-02T02:29:19;100045.84;;;4.53;88.03
1480;BME280;732;51.698;4.886;2024-03-02T02:31:48;100106.59;;;4.73;88.33
1480;BME280;732;51.698;4.886;2024-03-02T02:34:17;100093.13;;;4.48;89.48
1480;BME280;732;51.698;4.886;2024-03-02T02:36:45;100100.78;;;4.69;89.31
1480;BME280;732;51.698;4.886;2024-03-02T02:39:18;100076.91;;;4.51;89.65
1480;BME280;732;51.698;4.886;2024-03-02T02:41:49;100103.56;;;4.68;90.09
1480;BME280;732;51.698;4.886;2024-03-02T02:44:18;100105.00;;;4.62;90.39
1480;BME280;732;51.698;4.886;2024-03-02T02:46:46;100084.66;;;4.62;90.73
1480;BME280;732;51.698;4.886;2024-03-02T02:49:15;100066.81;;;4.64;90.24
1480;BME280;732;51.698;4.886;2024-03-02T02:51:44;100061.06;;;4.69;89.95
1480;BME280;732;51.698;4.886;2024-03-02T02:54:14;100085.59;;;4.89;89.41
1480;BME280;732;51.698;4.886;2024-03-02T02:56:43;100072.28;;;4.99;88.98
1480;BME280;732;51.698;4.886;2024-03-02T02:59:12;100081.94;;;5.08;88.49
1480;BME280;732;51.698;4.886;2024-03-02T03:01:40;100091.25;;;5.12;87.92
1480;BME280;732;51.698;4.886;2024-03-02T03:04:09;100091.41;;;5.11;87.77
1480;BME280;732;51.698;4.886;2024-03-02T03:06:38;100090.63;;;5.19;87.56
1480;BME280;732;51.698;4.886;2024-03-02T03:09:06;100089.03;;;5.26;87.11
1480;BME280;732;51.698;4.886;2024-03-02T03:11:39;100066.13;;;4.99;87.37
1480;BME280;732;51.698;4.886;2024-03-02T03:14:08;100076.28;;;5.03;87.08
1480;BME280;732;51.698;4.886;2024-03-02T03:16:37;100098.66;;;5.09;87.20
1480;BME280;732;51.698;4.886;2024-03-02T03:19:06;100092.53;;;5.08;86.84
1480;BME280;732;51.698;4.886;2024-03-02T03:21:34;100091.63;;;5.00;86.97
1480;BME280;732;51.698;4.886;2024-03-02T03:24:04;100091.56;;;4.91;86.71
1480;BME280;732;51.698;4.886;2024-03-02T03:26:36;100090.41;;;4.76;86.66
1480;BME280;732;51.698;4.886;2024-03-02T03:29:06;100103.13;;;4.72;86.09
1480;BME280;732;51.698;4.886;2024-03-02T03:31:35;100107.94;;;4.59;86.19
1480;BME280;732;51.698;4.886;2024-03-02T03:34:03;100114.75;;;4.43;86.34
1480;BME280;732;51.698;4.886;2024-03-02T03:36:32;100101.34;;;4.17;86.55
1480;BME280;732;51.698;4.886;2024-03-02T03:39:01;100118.44;;;4.23;86.68
1480;BME280;732;51.698;4.886;2024-03-02T03:41:30;100102.47;;;4.14;86.90
1480;BME280;732;51.698;4.886;2024-03-02T03:43:59;100123.38;;;4.08;87.14
1480;BME280;732;51.698;4.886;2024-03-02T03:46:29;100098.19;;;3.94;87.20
1480;BME280;732;51.698;4.886;2024-03-02T03:48:57;100097.00;;;3.78;86.89
1480;BME280;732;51.698;4.886;2024-03-02T03:51:26;100102.88;;;3.72;87.12
1480;BME280;732;51.698;4.886;2024-03-02T03:53:56;100119.53;;;3.82;87.36
1480;BME280;732;51.698;4.886;2024-03-02T03:56:24;100119.16;;;3.67;87.57
1480;BME280;732;51.698;4.886;2024-03-02T03:58:53;100101.78;;;3.55;87.50
1480;BME280;732;51.698;4.886;2024-03-02T04:01:22;100115.41;;;3.50;87.59
1480;BME280;732;51.698;4.886;2024-03-02T04:03:53;100116.13;;;3.43;87.80
1480;BME280;732;51.698;4.886;2024-03-02T04:06:22;100099.47;;;3.32;87.72
1480;BME280;732;51.698;4.886;2024-03-02T04:08:51;100110.72;;;3.34;87.82
1480;BME280;732;51.698;4.886;2024-03-02T04:11:22;100113.66;;;3.22;87.82
1480;BME280;732;51.698;4.886;2024-03-02T04:13:50;100102.81;;;3.25;88.07
1480;BME280;732;51.698;4.886;2024-03-02T04:16:25;100089.31;;;3.18;87.91
1480;BME280;732;51.698;4.886;2024-03-02T04:18:55;100085.13;;;3.15;87.89
1480;BME280;732;51.698;4.886;2024-03-02T04:21:26;100118.38;;;3.38;88.20
1480;BME280;732;51.698;4.886;2024-03-02T04:23:55;100107.09;;;3.26;88.25
1480;BME280;732;51.698;4.886;2024-03-02T04:26:26;100105.88;;;3.10;88.75
1480;BME280;732;51.698;4.886;2024-03-02T04:28:54;100106.72;;;3.01;89.74
1480;BME280;732;51.698;4.886;2024-03-02T04:31:23;100125.47;;;3.27;89.37
1480;BME280;732;51.698;4.886;2024-03-02T04:33:52;100108.50;;;3.20;88.80
1480;BME280;732;51.698;4.886;2024-03-02T04:36:22;100133.41;;;3.17;89.25
1480;BME280;732;51.698;4.886;2024-03-02T04:38:51;100088.06;;;3.02;89.47
1480;BME280;732;51.698;4.886;2024-03-02T04:41:20;100139.78;;;3.34;89.13
1480;BME280;732;51.698;4.886;2024-03-02T04:43:48;100132.56;;;3.27;88.97
1480;BME280;732;51.698;4.886;2024-03-02T04:46:17;100148.16;;;3.30;89.92
1480;BME280;732;51.698;4.886;2024-03-02T04:48:45;100152.72;;;3.47;90.61
1480;BME280;732;51.698;4.886;2024-03-02T04:51:16;100130.72;;;3.47;90.88
1480;BME280;732;51.698;4.886;2024-03-02T04:53:46;100129.47;;;3.61;91.13
1480;BME280;732;51.698;4.886;2024-03-02T04:56:14;100155.44;;;3.95;91.04
1480;BME280;732;51.698;4.886;2024-03-02T04:59:07;100135.78;;;3.97;90.91
1480;BME280;732;51.698;4.886;2024-03-02T05:01:36;100104.91;;;3.88;90.39
1480;BME280;732;51.698;4.886;2024-03-02T05:04:05;100102.41;;;3.77;89.72
1480;BME280;732;51.698;4.886;2024-03-02T05:06:33;100147.78;;;4.02;89.27
1480;BME280;732;51.698;4.886;2024-03-02T05:09:03;100154.88;;;4.01;89.92
1480;BME280;732;51.698;4.886;2024-03-02T05:11:32;100138.72;;;4.04;90.15
1480;BME280;732;51.698;4.886;2024-03-02T05:14:20;100129.13;;;4.03;89.94
1480;BME280;732;51.698;4.886;2024-03-02T05:16:50;100143.03;;;4.05;88.93
1480;BME280;732;51.698;4.886;2024-03-02T05:19:19;100123.47;;;3.78;88.09
1480;BME280;732;51.698;4.886;2024-03-02T05:21:47;100152.97;;;3.74;87.77
1480;BME280;732;51.698;4.886;2024-03-02T05:24:18;100138.69;;;3.37;88.77
1480;BME280;732;51.698;4.886;2024-03-02T05:26:47;100146.22;;;3.22;89.32
1480;BME280;732;51.698;4.886;2024-03-02T05:29:19;100138.41;;;3.21;88.90
1480;BME280;732;51.698;4.886;2024-03-02T05:31:48;100170.81;;;3.23;89.10
1480;BME280;732;51.698;4.886;2024-03-02T05:34:19;100176.91;;;3.13;89.22
1480;BME280;732;51.698;4.886;2024-03-02T05:36:47;100178.88;;;3.11;89.87
1480;BME280;732;51.698;4.886;2024-03-02T05:39:17;100174.97;;;3.15;90.08
1480;BME280;732;51.698;4.886;2024-03-02T05:41:46;100168.97;;;3.13;89.79
1480;BME280;732;51.698;4.886;2024-03-02T05:44:15;100170.53;;;3.16;90.77
1480;BME280;732;51.698;4.886;2024-03-02T05:46:43;100164.00;;;3.20;90.71
1480;BME280;732;51.698;4.886;2024-03-02T05:49:13;100173.72;;;3.39;90.67
1480;BME280;732;51.698;4.886;2024-03-02T05:51:42;100180.44;;;3.43;90.44
1480;BME280;732;51.698;4.886;2024-03-02T05:54:10;100182.22;;;3.43;91.57
1480;BME280;732;51.698;4.886;2024-03-02T05:56:40;100181.38;;;3.62;91.41
1480;BME280;732;51.698;4.886;2024-03-02T05:59:08;100142.72;;;3.51;90.70
1480;BME280;732;51.698;4.886;2024-03-02T06:01:41;100172.03;;;3.77;90.62
1480;BME280;732;51.698;4.886;2024-03-02T06:04:10;100155.78;;;3.62;89.90
1480;BME280;732;51.698;4.886;2024-03-02T06:06:39;100172.44;;;3.73;89.37
1480;BME280;732;51.698;4.886;2024-03-02T06:09:08;100150.50;;;3.43;88.67
1480;BME280;732;51.698;4.886;2024-03-02T06:11:41;100133.53;;;3.26;88.46
1480;BME280;732;51.698;4.886;2024-03-02T06:14:10;100181.66;;;3.39;88.35
1480;BME280;732;51.698;4.886;2024-03-02T06:16:38;100161.50;;;3.28;88.25
1480;BME280;732;51.698;4.886;2024-03-02T06:19:07;100190.00;;;3.34;87.43
1480;BME280;732;51.698;4.886;2024-03-02T06:21:35;100197.94;;;3.34;87.14
1480;BME280;732;51.698;4.886;2024-03-02T06:24:05;100205.16;;;3.23;87.37
1480;BME280;732;51.698;4.886;2024-03-02T06:26:33;100210.03;;;3.17;87.49
1480;BME280;732;51.698;4.886;2024-03-02T06:29:08;100170.94;;;3.01;87.75
1480;BME280;732;51.698;4.886;2024-03-02T06:31:37;100196.81;;;3.08;87.28
1480;BME280;732;51.698;4.886;2024-03-02T06:34:05;100205.56;;;3.08;87.80
1480;BME280;732;51.698;4.886;2024-03-02T06:36:35;100199.53;;;2.86;89.27
1480;BME280;732;51.698;4.886;2024-03-02T06:39:04;100211.53;;;3.00;89.01
1480;BME280;732;51.698;4.886;2024-03-02T06:41:34;100187.88;;;2.89;89.45
1480;BME280;732;51.698;4.886;2024-03-02T06:44:02;100178.38;;;2.77;90.27
1480;BME280;732;51.698;4.886;2024-03-02T06:46:32;100217.94;;;3.08;90.38
1480;BME280;732;51.698;4.886;2024-03-02T06:49:01;100208.91;;;3.20;90.66
1480;BME280;732;51.698;4.886;2024-03-02T06:51:34;100204.75;;;3.17;91.08
1480;BME280;732;51.698;4.886;2024-03-02T06:54:03;100201.41;;;3.25;90.66
1480;BME280;732;51.698;4.886;2024-03-02T06:56:32;100223.69;;;3.42;89.82
1480;BME280;732;51.698;4.886;2024-03-02T06:59:01;100222.44;;;3.56;89.70
1480;BME280;732;51.698;4.886;2024-03-02T07:01:30;100191.53;;;3.47;89.75
1480;BME280;732;51.698;4.886;2024-03-02T07:04:00;100185.41;;;3.46;89.53
1480;BME280;732;51.698;4.886;2024-03-02T07:06:29;100207.81;;;3.62;89.22
1480;BME280;732;51.698;4.886;2024-03-02T07:08:57;100229.66;;;3.74;88.81
1480;BME280;732;51.698;4.886;2024-03-02T07:11:29;100229.09;;;3.80;89.02
1480;BME280;732;51.698;4.886;2024-03-02T07:13:58;100227.00;;;3.93;88.81
1480;BME280;732;51.698;4.886;2024-03-02T07:16:27;100232.00;;;3.96;88.55
1480;BME280;732;51.698;4.886;2024-03-02T07:18:58;100234.66;;;3.96;88.44
1480;BME280;732;51.698;4.886;2024-03-02T07:21:29;100145.06;;;3.34;87.90
1480;BME280;732;51.698;4.886;2024-03-02T07:23:59;100238.25;;;3.95;87.52
1480;BME280;732;51.698;4.886;2024-03-02T07:26:30;100238.03;;;3.98;87.29
1480;BME280;732;51.698;4.886;2024-03-02T07:29:02;100237.31;;;3.77;87.20
1480;BME280;732;51.698;4.886;2024-03-02T07:31:32;100247.75;;;3.78;87.99
1480;BME280;732;51.698;4.886;2024-03-02T07:34:02;100236.78;;;3.73;88.33
1480;BME280;732;51.698;4.886;2024-03-02T07:36:31;100252.19;;;3.88;88.44
1480;BME280;732;51.698;4.886;2024-03-02T07:38:59;100249.97;;;3.93;88.41
1480;BME280;732;51.698;4.886;2024-03-02T07:41:28;100241.22;;;3.82;88.65
1480;BME280;732;51.698;4.886;2024-03-02T07:43:57;100140.38;;;3.28;88.24
1480;BME280;732;51.698;4.886;2024-03-02T07:46:27;100246.75;;;3.89;88.64
1480;BME280;732;51.698;4.886;2024-03-02T07:48:55;100252.78;;;4.11;88.31
1480;BME280;732;51.698;4.886;2024-03-02T07:51:25;100225.47;;;4.01;87.98
1480;BME280;732;51.698;4.886;2024-03-02T07:53:54;100259.28;;;4.17;87.72
1480;BME280;732;51.698;4.886;2024-03-02T07:56:23;100253.75;;;4.10;87.74
1480;BME280;732;51.698;4.886;2024-03-02T07:58:51;100248.59;;;4.18;87.73
1480;BME280;732;51.698;4.886;2024-03-02T08:01:20;100259.69;;;4.31;87.69
1480;BME280;732;51.698;4.886;2024-03-02T08:03:49;100241.16;;;4.22;87.58
1480;BME280;732;51.698;4.886;2024-03-02T08:06:18;100232.97;;;4.15;87.79
1480;BME280;732;51.698;4.886;2024-03-02T08:08:51;100261.56;;;4.49;87.63
1480;BME280;732;51.698;4.886;2024-03-02T08:11:20;100237.91;;;4.47;87.54
1480;BME280;732;51.698;4.886;2024-03-02T08:13:48;100251.94;;;4.58;87.65
1480;BME280;732;51.698;4.886;2024-03-02T08:16:19;100258.00;;;4.78;87.64
1480;BME280;732;51.698;4.886;2024-03-02T08:18:49;100252.41;;;4.81;87.20
1480;BME280;732;51.698;4.886;2024-03-02T08:21:20;100240.09;;;4.90;86.86
1480;BME280;732;51.698;4.886;2024-03-02T08:23:51;100238.28;;;4.90;86.90
1480;BME280;732;51.698;4.886;2024-03-02T08:26:20;100257.63;;;5.01;87.05
1480;BME280;732;51.698;4.886;2024-03-02T08:28:52;100248.72;;;5.20;86.88
1480;BME280;732;51.698;4.886;2024-03-02T08:31:21;100252.66;;;5.34;86.45
1480;BME280;732;51.698;4.886;2024-03-02T08:33:51;100239.56;;;5.32;86.31
1480;BME280;732;51.698;4.886;2024-03-02T08:36:22;100241.94;;;5.35;85.78
1480;BME280;732;51.698;4.886;2024-03-02T08:38:53;100232.75;;;5.66;85.59
1480;BME280;732;51.698;4.886;2024-03-02T08:41:21;100242.75;;;5.72;85.21
1480;BME280;732;51.698;4.886;2024-03-02T08:43:50;100235.84;;;5.79;85.13
1480;BME280;732;51.698;4.886;2024-03-02T08:46:19;100243.47;;;6.00;84.55
1480;BME280;732;51.698;4.886;2024-03-02T08:48:48;100243.13;;;6.21;84.84
1480;BME280;732;51.698;4.886;2024-03-02T08:51:20;100248.84;;;6.35;84.68
1480;BME280;732;51.698;4.886;2024-03-02T08:53:48;100248.22;;;6.41;83.52
1480;BME280;732;51.698;4.886;2024-03-02T08:56:18;100251.53;;;6.61;83.00
1480;BME280;732;51.698;4.886;2024-03-02T08:58:48;100238.25;;;6.61;81.73
1480;BME280;732;51.698;4.886;2024-03-02T09:01:17;100240.41;;;6.66;81.38
1480;BME280;732;51.698;4.886;2024-03-02T09:03:47;100223.75;;;6.55;80.52
1480;BME280;732;51.698;4.886;2024-03-02T09:06:17;100270.09;;;6.87;80.93
1480;BME280;732;51.698;4.886;2024-03-02T09:08:47;100224.34;;;6.76;80.43
1480;BME280;732;51.698;4.886;2024-03-02T09:11:20;100261.56;;;7.27;80.73
1480;BME280;732;51.698;4.886;2024-03-02T09:13:48;100271.56;;;7.33;78.24
1480;BME280;732;51.698;4.886;2024-03-02T09:16:17;100248.59;;;7.23;77.27
1480;BME280;732;51.698;4.886;2024-03-02T09:18:47;100259.94;;;7.34;77.11
1480;BME280;732;51.698;4.886;2024-03-02T09:21:15;100270.63;;;7.59;77.06
1480;BME280;732;51.698;4.886;2024-03-02T09:23:44;100267.63;;;7.62;76.84
1480;BME280;732;51.698;4.886;2024-03-02T09:26:14;100258.97;;;7.60;75.65
1480;BME280;732;51.698;4.886;2024-03-02T09:28:44;100261.81;;;7.66;76.42
1480;BME280;732;51.698;4.886;2024-03-02T09:31:13;100218.38;;;7.58;75.72
1480;BME280;732;51.698;4.886;2024-03-02T09:33:42;100257.16;;;7.77;74.97
1480;BME280;732;51.698;4.886;2024-03-02T09:36:17;100251.66;;;7.86;74.71
1480;BME280;732;51.698;4.886;2024-03-02T09:38:47;100252.16;;;8.07;75.40
1480;BME280;732;51.698;4.886;2024-03-02T09:41:16;100222.72;;;7.83;72.64
1480;BME280;732;51.698;4.886;2024-03-02T09:43:46;100274.09;;;8.25;73.82
1480;BME280;732;51.698;4.886;2024-03-02T09:46:16;100266.44;;;8.30;72.26
1480;BME280;732;51.698;4.886;2024-03-02T09:48:45;100266.78;;;8.52;71.27
1480;BME280;732;51.698;4.886;2024-03-02T09:51:14;100268.94;;;8.57;71.53
1480;BME280;732;51.698;4.886;2024-03-02T09:53:47;100271.06;;;8.61;70.68
1480;BME280;732;51.698;4.886;2024-03-02T09:56:16;100268.75;;;8.58;68.89
1480;BME280;732;51.698;4.886;2024-03-02T09:58:47;100264.88;;;8.69;69.50
1480;BME280;732;51.698;4.886;2024-03-02T10:01:17;100237.91;;;8.64;70.26
1480;BME280;732;51.698;4.886;2024-03-02T10:03:46;100270.69;;;8.81;69.52
1480;BME280;732;51.698;4.886;2024-03-02T10:06:22;100271.84;;;8.87;69.44
1480;BME280;732;51.698;4.886;2024-03-02T10:08:52;100263.59;;;8.96;68.78
1480;BME280;732;51.698;4.886;2024-03-02T10:11:28;100270.97;;;9.26;69.91
1480;BME280;732;51.698;4.886;2024-03-02T10:14:11;100264.59;;;9.35;69.63
1480;BME280;732;51.698;4.886;2024-03-02T10:16:42;100252.19;;;9.42;69.67
1480;BME280;732;51.698;4.886;2024-03-02T10:19:18;100229.19;;;9.41;67.35
1480;BME280;732;51.698;4.886;2024-03-02T10:21:47;100255.94;;;9.79;68.49
1480;BME280;732;51.698;4.886;2024-03-02T10:24:17;100236.63;;;9.92;67.19
1480;BME280;732;51.698;4.886;2024-03-02T10:26:46;100238.03;;;10.11;66.71
1480;BME280;732;51.698;4.886;2024-03-02T10:29:19;100244.47;;;10.17;65.06
1480;BME280;732;51.698;4.886;2024-03-02T10:31:47;100244.84;;;10.14;61.88
1480;BME280;732;51.698;4.886;2024-03-02T10:34:16;100241.72;;;10.25;65.13
1480;BME280;732;51.698;4.886;2024-03-02T10:36:45;100243.75;;;10.53;64.37
1480;BME280;732;51.698;4.886;2024-03-02T10:39:14;100237.78;;;10.36;64.04
1480;BME280;732;51.698;4.886;2024-03-02T10:41:44;100238.41;;;10.38;63.54
1480;BME280;732;51.698;4.886;2024-03-02T10:44:14;100212.25;;;10.49;62.42
1480;BME280;732;51.698;4.886;2024-03-02T10:46:46;100232.97;;;10.76;64.18
1480;BME280;732;51.698;4.886;2024-03-02T10:49:15;100204.84;;;10.81;63.83
1480;BME280;732;51.698;4.886;2024-03-02T10:51:45;100193.84;;;10.90;62.99
1480;BME280;732;51.698;4.886;2024-03-02T10:54:14;100230.16;;;11.15;62.03
1480;BME280;732;51.698;4.886;2024-03-02T10:56:44;100178.81;;;10.74;60.30
1480;BME280;732;51.698;4.886;2024-03-02T10:59:23;100212.16;;;11.08;60.90
1480;BME280;732;51.698;4.886;2024-03-02T11:01:58;100224.78;;;11.15;60.93
1480;BME280;732;51.698;4.886;2024-03-02T11:04:32;100232.63;;;11.16;59.21
1480;BME280;732;51.698;4.886;2024-03-02T11:07:05;100231.06;;;11.07;60.05
1480;BME280;732;51.698;4.886;2024-03-02T11:09:39;100223.91;;;11.29;60.09
1480;BME280;732;51.698;4.886;2024-03-02T11:12:15;100238.13;;;11.45;59.69
1480;BME280;732;51.698;4.886;2024-03-02T11:14:47;100221.88;;;11.31;58.57
1480;BME280;732;51.698;4.886;2024-03-02T11:17:20;100232.78;;;11.45;57.33
1480;BME280;732;51.698;4.886;2024-03-02T11:19:50;100191.63;;;11.16;57.32
1480;BME280;732;51.698;4.886;2024-03-02T11:22:20;100235.88;;;11.33;59.26
1480;BME280;732;51.698;4.886;2024-03-02T11:24:50;100220.03;;;11.32;57.97
1480;BME280;732;51.698;4.886;2024-03-02T11:28:00;100225.50;;;11.60;56.14
1480;BME280;732;51.698;4.886;2024-03-02T11:30:51;100189.50;;;11.26;55.20
1480;BME280;732;51.698;4.886;2024-03-02T11:33:26;100218.88;;;11.56;57.17
1480;BME280;732;51.698;4.886;2024-03-02T11:35:58;100219.78;;;11.91;57.54
1480;BME280;732;51.698;4.886;2024-03-02T11:38:31;100182.03;;;12.15;58.00
1480;BME280;732;51.698;4.886;2024-03-02T11:41:02;100181.22;;;12.56;56.89
1480;BME280;732;51.698;4.886;2024-03-02T11:43:31;100174.09;;;12.70;56.14
1480;BME280;732;51.698;4.886;2024-03-02T11:46:03;100172.75;;;12.94;55.25
1480;BME280;732;51.698;4.886;2024-03-02T11:48:38;100175.84;;;13.11;54.54
1480;BME280;732;51.698;4.886;2024-03-02T11:51:08;100190.56;;;13.22;55.39
1480;BME280;732;51.698;4.886;2024-03-02T11:53:39;100194.09;;;13.29;54.63
1480;BME280;732;51.698;4.886;2024-03-02T11:56:09;100170.31;;;13.13;53.86
1480;BME280;732;51.698;4.886;2024-03-02T11:58:41;100184.97;;;13.17;53.77
1480;BME280;732;51.698;4.886;2024-03-02T12:01:10;100185.72;;;12.91;53.28
1480;BME280;732;51.698;4.886;2024-03-02T12:03:42;100178.25;;;12.79;53.54
1480;BME280;732;51.698;4.886;2024-03-02T12:06:12;100175.09;;;12.69;54.55
1480;BME280;732;51.698;4.886;2024-03-02T12:08:41;100147.66;;;12.67;54.87
1480;BME280;732;51.698;4.886;2024-03-02T12:11:13;100136.94;;;12.74;54.42
1480;BME280;732;51.698;4.886;2024-03-02T12:13:52;100161.59;;;12.97;53.17
1480;BME280;732;51.698;4.886;2024-03-02T12:16:24;100124.84;;;12.98;54.99
1480;BME280;732;51.698;4.886;2024-03-02T12:18:54;100103.56;;;12.83;53.19
1480;BME280;732;51.698;4.886;2024-03-02T12:21:23;100157.50;;;13.08;53.36
1480;BME280;732;51.698;4.886;2024-03-02T12:23:52;100144.69;;;13.24;53.36
1480;BME280;732;51.698;4.886;2024-03-02T12:26:22;100142.66;;;13.59;55.33
1480;BME280;732;51.698;4.886;2024-03-02T12:28:51;100141.00;;;13.58;52.82
1480;BME280;732;51.698;4.886;2024-03-02T12:31:20;100094.50;;;13.37;52.26
1480;BME280;732;51.698;4.886;2024-03-02T12:33:48;100139.56;;;13.82;53.27
1480;BME280;732;51.698;4.886;2024-03-02T12:36:19;100071.78;;;13.47;52.86
1480;BME280;732;51.698;4.886;2024-03-02T12:38:48;100119.50;;;13.78;52.43
1480;BME280;732;51.698;4.886;2024-03-02T12:41:18;100128.81;;;13.69;51.15
1480;BME280;732;51.698;4.886;2024-03-02T12:43:46;100101.72;;;13.44;52.62
1480;BME280;732;51.698;4.886;2024-03-02T12:46:15;100126.13;;;13.62;52.73
1480;BME280;732;51.698;4.886;2024-03-02T12:48:44;100124.88;;;13.65;52.84
1480;BME280;732;51.698;4.886;2024-03-02T12:51:14;100120.75;;;13.62;51.71
1480;BME280;732;51.698;4.886;2024-03-02T12:53:44;100118.91;;;13.49;51.74
1480;BME280;732;51.698;4.886;2024-03-02T12:56:13;100110.22;;;13.61;52.18
1480;BME280;732;51.698;4.886;2024-03-02T12:58:41;100113.31;;;13.51;50.31
1480;BME280;732;51.698;4.886;2024-03-02T13:01:10;100111.44;;;13.25;51.27
1480;BME280;732;51.698;4.886;2024-03-02T13:03:41;100101.13;;;13.28;52.92
1480;BME280;732;51.698;4.886;2024-03-02T13:06:10;100096.38;;;13.44;53.03
1480;BME280;732;51.698;4.886;2024-03-02T13:08:39;100092.84;;;13.50;52.63
1480;BME280;732;51.698;4.886;2024-03-02T13:11:09;100073.03;;;13.44;51.72
1480;BME280;732;51.698;4.886;2024-03-02T13:13:39;100075.50;;;13.46;52.38
1480;BME280;732;51.698;4.886;2024-03-02T13:16:12;100099.84;;;13.71;52.38
1480;BME280;732;51.698;4.886;2024-03-02T13:18:44;100096.75;;;13.94;51.45
1480;BME280;732;51.698;4.886;2024-03-02T13:21:13;100096.88;;;14.20;51.69
1480;BME280;732;51.698;4.886;2024-03-02T13:23:42;100080.88;;;14.45;50.52
1480;BME280;732;51.698;4.886;2024-03-02T13:26:12;100090.69;;;14.64;48.13
1480;BME280;732;51.698;4.886;2024-03-02T13:28:41;100094.13;;;14.78;48.66
1480;BME280;732;51.698;4.886;2024-03-02T13:31:10;100088.09;;;14.83;48.99
1480;BME280;732;51.698;4.886;2024-03-02T13:33:40;100079.81;;;14.85;49.01
1480;BME280;732;51.698;4.886;2024-03-02T13:36:09;100045.63;;;14.60;48.85
1480;BME280;732;51.698;4.886;2024-03-02T13:38:39;100077.50;;;14.88;48.68
1480;BME280;732;51.698;4.886;2024-03-02T13:41:11;100060.97;;;14.91;48.67
1480;BME280;732;51.698;4.886;2024-03-02T13:43:40;100055.78;;;14.90;47.80
1480;BME280;732;51.698;4.886;2024-03-02T13:46:13;100073.34;;;14.99;48.17